CYAS

Kangirsuk Supplementary Aviation Weather Reporting

Kangirsuk, Alberta, Canada
TAF AMD CYAS 171558Z 1715/1722 35005KT 3SM -SN OVC030 TEMPO 1715/1722 3/4SM -SHSN OVC010 BECMG 1717/1719 34010KT RMK NXT FCST WILL BE ISSUED AT 181445Z
Issued Valid From Valid To
Nov-17 @ 15:58 UTC
(3 hours ago)
Nov-17 @ 15:00 UTC
(4 hours ago)
Nov-17 @ 22:00 UTC
(in 3 hours)
Expired Click to View Nov-17 @ 15:00 to Nov-17 @ 17:00
TAF AMD CYAS 171558Z 1715/1722 35005KT 3SM -SN OVC030
Wind Visibility Clouds Conditions
350° at 5 knots 3 miles
  • Overcast at 3,000' AGL
  • Light Snow
Temporary Nov-17 @ 15:00 to Nov-17 @ 22:00
TEMPO 1715/1722 3/4SM -SHSN OVC010
Visibility Clouds Conditions
3/4 miles
  • Overcast at 1,000' AGL
  • Light Snow
Becoming Nov-17 @ 17:00 to Nov-17 @ 22:00
BECMG 1717/1719 34010KT RMK NXT FCST WILL BE ISSUED AT 181445Z
Wind Visibility Clouds Conditions
340° at 10 knots 3 miles
  • Overcast at 3,000' AGL
  • Light Snow
TAF AMD CYAS 171558Z 1715/1722 35005KT 3SM -SN OVC030 TEMPO 1715/1722 3/4SM -SHSN OVC010 BECMG 1717/1719 34010KT RMK NXT FCST WILL BE ISSUED AT 181445Z
Issued Nov-17 @ 15:58 UTC
(3 hours ago)
Valid From Nov-17 @ 15:00 UTC
(4 hours ago)
Valid To Nov-17 @ 22:00 UTC
(in 3 hours)
Nov-17 @ 15:00 - Nov-17 @ 17:00
Wind Visibility
350° at 5 knots 3 miles
Clouds
  • Overcast at 3,000' AGL
Conditions
  • Light Snow
Temporary Nov-17 @ 15:00 - Nov-17 @ 22:00
Clouds
  • Overcast at 1,000' AGL
Conditions
  • Light Snow
Becoming Nov-17 @ 17:00 - Nov-17 @ 22:00
Wind Visibility
340° at 10 knots 3 miles
Clouds
  • Overcast at 3,000' AGL
Conditions
  • Light Snow